createdAt,value
2017-08-24T00:00:49.854Z,82.60
2017-08-24T00:03:16.075Z,85.60
2017-08-24T00:05:42.300Z,85.30
2017-08-24T00:08:08.788Z,85.60
2017-08-24T00:10:34.889Z,84.80
2017-08-24T00:13:01.018Z,85.20
2017-08-24T00:15:27.346Z,85.00
2017-08-24T00:17:53.467Z,83.20
2017-08-24T00:20:19.882Z,79.90
2017-08-24T00:22:46.118Z,80.50
2017-08-24T00:25:12.327Z,82.20
2017-08-24T00:27:38.510Z,83.10
2017-08-24T00:30:04.709Z,85.40
2017-08-24T00:32:31.230Z,87.80
2017-08-24T00:34:57.367Z,87.70
2017-08-24T00:37:23.564Z,88.80
2017-08-24T00:39:49.849Z,88.20
2017-08-24T00:42:16.058Z,87.30
2017-08-24T00:44:42.539Z,89.10
2017-08-24T00:47:08.827Z,90.30
2017-08-24T00:49:35.074Z,91.20
2017-08-24T00:52:01.293Z,91.90
2017-08-24T00:54:27.445Z,92.30
2017-08-24T00:56:53.988Z,92.30
2017-08-24T00:59:20.205Z,92.90
2017-08-24T01:01:46.449Z,93.60
2017-08-24T01:04:12.663Z,94.50
2017-08-24T01:06:38.906Z,94.90
2017-08-24T01:09:05.452Z,94.70
2017-08-24T01:11:31.570Z,95.00
2017-08-24T01:13:57.798Z,95.30
2017-08-24T01:16:24.437Z,97.40
2017-08-24T01:18:50.617Z,97.00
2017-08-24T01:21:16.755Z,97.30
2017-08-24T01:23:43.225Z,98.30
2017-08-24T01:26:09.491Z,98.60
2017-08-24T01:28:35.696Z,99.70
2017-08-24T01:31:02.128Z,98.10
2017-08-24T01:33:28.299Z,97.40
2017-08-24T01:35:54.411Z,97.80
2017-08-24T01:38:20.885Z,97.90
2017-08-24T01:40:47.071Z,97.50
2017-08-24T01:43:13.208Z,97.60
2017-08-24T01:45:39.677Z,97.30
2017-08-24T01:48:05.874Z,97.70
2017-08-24T01:50:31.978Z,97.50
2017-08-24T01:52:58.470Z,97.90
2017-08-24T01:55:24.648Z,97.60
2017-08-24T01:57:50.765Z,98.50
2017-08-24T02:00:17.247Z,96.30
2017-08-24T02:02:43.527Z,95.70
2017-08-24T02:05:09.660Z,95.50
2017-08-24T02:07:35.981Z,95.00
2017-08-24T02:10:02.161Z,94.60
2017-08-24T02:12:28.348Z,92.80
2017-08-24T02:14:54.845Z,93.70
2017-08-24T02:17:21.035Z,93.40
2017-08-24T02:19:47.145Z,92.90
2017-08-24T02:22:13.301Z,93.20
2017-08-24T02:24:39.500Z,91.80
2017-08-24T02:27:05.634Z,91.50
2017-08-24T02:29:32.097Z,91.60
2017-08-24T02:31:58.244Z,91.20
2017-08-24T02:34:24.415Z,92.80
2017-08-24T02:36:50.817Z,92.40
2017-08-24T02:39:16.985Z,93.20
2017-08-24T02:41:43.096Z,92.60
2017-08-24T02:44:09.569Z,93.20
2017-08-24T02:46:35.752Z,93.90
2017-08-24T02:49:01.857Z,93.60
2017-08-24T02:51:28.053Z,94.20
2017-08-24T02:53:54.249Z,94.00
2017-08-24T02:56:20.708Z,94.70
2017-08-24T02:58:46.939Z,94.40
2017-08-24T03:01:13.128Z,94.30
2017-08-24T03:03:39.277Z,95.20
2017-08-24T03:06:05.392Z,95.10
2017-08-24T03:08:31.843Z,95.50
2017-08-24T03:10:58.049Z,95.20
2017-08-24T03:13:24.177Z,96.60
2017-08-24T03:15:50.349Z,97.30
2017-08-24T03:18:16.511Z,98.90
2017-08-24T03:20:43.000Z,99.50
2017-08-24T03:23:09.199Z,99.20
2017-08-24T03:25:35.310Z,99.20
2017-08-24T03:28:01.453Z,98.20
2017-08-24T03:30:27.549Z,97.90
2017-08-24T03:32:54.028Z,98.00
2017-08-24T03:35:20.236Z,97.80
2017-08-24T03:37:46.341Z,98.10
2017-08-24T03:40:12.485Z,98.20
2017-08-24T03:42:38.612Z,97.00
2017-08-24T03:45:05.163Z,97.00
2017-08-24T03:47:31.249Z,97.30
2017-08-24T03:49:57.375Z,96.90
2017-08-24T03:52:23.531Z,97.40
2017-08-24T03:54:49.660Z,97.20
2017-08-24T03:57:16.330Z,97.40
2017-08-24T03:59:42.491Z,97.00
2017-08-24T04:02:08.615Z,96.50
2017-08-24T04:04:35.112Z,96.20
2017-08-24T04:07:01.276Z,96.10
2017-08-24T04:09:27.425Z,96.30
2017-08-24T04:11:53.555Z,96.10
2017-08-24T04:14:19.668Z,96.50
2017-08-24T04:16:46.145Z,97.10
2017-08-24T04:19:12.229Z,96.90
2017-08-24T04:21:38.343Z,96.50
2017-08-24T04:24:04.537Z,96.30
2017-08-24T04:26:30.713Z,96.40
2017-08-24T04:28:57.182Z,96.50
2017-08-24T04:31:23.373Z,96.10
2017-08-24T04:33:49.493Z,95.80
2017-08-24T04:39:11.094Z,95.90
2017-08-24T04:41:37.302Z,95.90
2017-08-24T04:44:03.827Z,96.10
2017-08-24T04:46:30.409Z,95.70
2017-08-24T04:48:56.596Z,95.70
2017-08-24T04:51:22.819Z,95.90
2017-08-24T04:53:49.246Z,95.60
2017-08-24T04:56:15.384Z,95.50
2017-08-24T04:58:41.535Z,95.00
2017-08-24T05:01:07.773Z,94.90
2017-08-24T05:03:34.081Z,94.60
2017-08-24T05:06:00.294Z,94.50
2017-08-24T05:08:26.748Z,94.20
2017-08-24T05:10:52.963Z,93.90
2017-08-24T05:13:19.067Z,93.70
2017-08-24T05:15:45.537Z,93.10
2017-08-24T05:18:11.781Z,92.60
2017-08-24T05:20:37.970Z,91.80
2017-08-24T05:23:04.547Z,92.00
2017-08-24T05:25:30.848Z,90.70
2017-08-24T05:27:57.089Z,91.60
2017-08-24T05:30:23.628Z,90.60
2017-08-24T05:32:49.843Z,89.30
2017-08-24T05:35:16.071Z,87.90
2017-08-24T05:37:42.643Z,86.90
2017-08-24T05:40:08.822Z,85.70
2017-08-24T05:42:34.946Z,85.30
2017-08-24T05:45:01.203Z,83.00
2017-08-24T05:47:27.481Z,82.10
2017-08-24T05:49:53.625Z,81.70
2017-08-24T05:52:19.783Z,80.30
2017-08-24T05:54:46.178Z,79.60
2017-08-24T05:57:12.362Z,78.20
2017-08-24T05:59:38.567Z,77.70
2017-08-24T06:02:04.887Z,75.80
2017-08-24T06:04:31.244Z,75.60
2017-08-24T06:06:57.477Z,73.30
2017-08-24T06:09:23.671Z,73.80
2017-08-24T06:11:49.914Z,71.20
2017-08-24T06:14:16.163Z,70.40
2017-08-24T06:16:42.550Z,68.70
2017-08-24T06:19:08.761Z,65.30
2017-08-24T06:21:34.979Z,61.90
2017-08-24T06:24:01.165Z,59.50
2017-08-24T06:26:27.330Z,58.90
2017-08-24T06:28:53.488Z,56.30
2017-08-24T06:31:19.788Z,56.40
2017-08-24T06:33:45.948Z,58.80
2017-08-24T06:36:12.091Z,59.30
2017-08-24T06:38:38.334Z,58.50
2017-08-24T06:41:04.519Z,59.00
2017-08-24T06:43:30.681Z,58.80
2017-08-24T06:45:56.864Z,59.70
2017-08-24T06:48:23.069Z,58.70
2017-08-24T06:50:49.253Z,58.50
2017-08-24T06:53:15.475Z,59.00
2017-08-24T06:55:41.740Z,59.90
2017-08-24T06:58:08.329Z,60.30
2017-08-24T07:00:34.468Z,60.50
2017-08-24T07:03:00.761Z,60.80
2017-08-24T07:05:26.903Z,59.90
2017-08-24T07:07:53.073Z,58.50
2017-08-24T07:10:19.345Z,59.10
2017-08-24T07:12:45.504Z,58.50
2017-08-24T07:15:11.808Z,58.00
2017-08-24T07:17:38.957Z,57.80
2017-08-24T07:20:05.075Z,57.30
2017-08-24T07:22:31.289Z,56.90
2017-08-24T07:24:57.470Z,56.80
2017-08-24T07:27:23.895Z,53.70
2017-08-24T07:29:50.077Z,53.80
2017-08-24T07:32:16.370Z,52.00
2017-08-24T07:34:42.624Z,50.30
2017-08-24T07:37:08.930Z,49.70
2017-08-24T07:39:35.252Z,47.30
2017-08-24T07:42:01.545Z,46.90
2017-08-24T07:44:27.813Z,44.20
2017-08-24T07:46:54.060Z,44.10
2017-08-24T07:49:20.282Z,42.50
2017-08-24T07:51:47.702Z,40.40
2017-08-24T07:54:14.253Z,39.70
2017-08-24T07:56:40.461Z,39.80
2017-08-24T07:59:06.704Z,39.90
2017-08-24T08:01:32.917Z,39.20
2017-08-24T08:03:59.098Z,39.30
2017-08-24T08:06:25.316Z,39.10
2017-08-24T08:08:51.539Z,38.10
2017-08-24T08:11:17.832Z,38.80
2017-08-24T08:13:44.004Z,39.60
2017-08-24T08:16:10.221Z,38.30
2017-08-24T08:18:36.458Z,40.40
2017-08-24T08:21:02.733Z,40.40
2017-08-24T08:23:28.919Z,39.80
2017-08-24T08:25:55.147Z,38.50
2017-08-24T08:28:22.029Z,38.40
2017-08-24T08:30:48.987Z,36.90
2017-08-24T08:33:15.237Z,36.40
2017-08-24T08:35:41.535Z,37.30
2017-08-24T08:38:08.285Z,38.90
2017-08-24T08:40:34.471Z,37.90
2017-08-24T08:43:00.696Z,36.90
2017-08-24T08:45:27.252Z,37.90
2017-08-24T08:47:53.469Z,39.00
2017-08-24T08:50:19.649Z,50.00
2017-08-24T08:52:46.202Z,51.90
2017-08-24T08:55:12.431Z,39.10
2017-08-24T08:57:38.659Z,38.90
2017-08-24T09:00:05.192Z,38.90
2017-08-24T09:02:32.409Z,38.90
2017-08-24T09:04:58.583Z,37.30
2017-08-24T09:07:25.142Z,37.10
2017-08-24T09:09:51.320Z,34.30
2017-08-24T09:12:17.496Z,34.80
2017-08-24T09:14:44.014Z,34.20
2017-08-24T09:17:10.226Z,35.60
2017-08-24T09:19:36.433Z,34.70
2017-08-24T09:22:04.116Z,34.40
2017-08-24T09:24:30.428Z,35.30
2017-08-24T09:26:56.692Z,36.30
2017-08-24T09:29:23.086Z,36.70
2017-08-24T09:31:50.044Z,35.00
2017-08-24T09:34:16.703Z,35.50
2017-08-24T09:36:43.039Z,37.80
2017-08-24T09:39:10.477Z,38.90
2017-08-24T09:41:37.045Z,39.50
2017-08-24T09:44:03.501Z,39.90
2017-08-24T09:46:29.808Z,39.40
2017-08-24T09:48:56.151Z,39.40
2017-08-24T09:51:22.806Z,39.70
2017-08-24T09:53:49.055Z,40.40
2017-08-24T09:56:15.229Z,41.90
2017-08-24T09:58:41.853Z,41.30
2017-08-24T10:01:08.088Z,41.70
2017-08-24T10:03:34.320Z,42.30
2017-08-24T10:06:00.882Z,42.40
2017-08-24T10:08:27.129Z,44.90
2017-08-24T10:10:53.297Z,48.30
2017-08-24T10:13:19.923Z,51.10
2017-08-24T10:15:46.823Z,57.00
2017-08-24T10:18:13.068Z,58.80
2017-08-24T10:20:39.646Z,60.40
2017-08-24T10:23:05.948Z,59.70
2017-08-24T10:25:32.080Z,59.30
2017-08-24T10:27:58.755Z,57.50
2017-08-24T10:32:56.816Z,58.70
2017-08-24T10:35:23.384Z,55.40
2017-08-24T10:37:49.588Z,54.30
2017-08-24T10:40:15.872Z,53.80
2017-08-24T10:42:42.378Z,52.10
2017-08-24T10:45:08.574Z,51.00
2017-08-24T10:47:34.816Z,49.10
2017-08-24T10:50:01.258Z,49.90
2017-08-24T10:52:27.468Z,49.30
2017-08-24T10:54:53.625Z,48.50
2017-08-24T10:57:20.258Z,47.70
2017-08-24T10:59:46.467Z,47.60
2017-08-24T11:02:12.693Z,47.00
2017-08-24T11:04:39.355Z,45.50
2017-08-24T11:07:05.549Z,43.00
2017-08-24T11:09:31.848Z,40.50
2017-08-24T11:11:58.305Z,40.10
2017-08-24T11:14:24.523Z,39.00
2017-08-24T11:16:50.695Z,39.60
2017-08-24T11:19:17.220Z,39.90
2017-08-24T11:21:43.553Z,41.30
2017-08-24T11:24:09.813Z,39.90
2017-08-24T11:26:36.423Z,40.40
2017-08-24T11:29:02.682Z,39.90
2017-08-24T11:31:28.889Z,38.60
2017-08-24T11:33:55.515Z,38.70
2017-08-24T11:36:21.792Z,38.30
2017-08-24T11:38:47.946Z,38.00
2017-08-24T11:41:15.248Z,35.50
2017-08-24T11:43:42.279Z,36.00
2017-08-24T11:46:08.484Z,37.20
2017-08-24T11:48:35.628Z,37.20
2017-08-24T11:51:01.903Z,38.90
2017-08-24T11:53:28.090Z,38.20
2017-08-24T11:55:54.655Z,38.50
2017-08-24T11:58:21.962Z,38.00
2017-08-24T12:00:48.241Z,38.00
2017-08-24T12:03:14.811Z,39.30
2017-08-24T12:05:40.953Z,39.00
2017-08-24T12:08:07.113Z,38.50
2017-08-24T12:10:33.347Z,38.40
2017-08-24T12:12:59.550Z,38.20
2017-08-24T12:15:25.858Z,39.00
2017-08-24T12:17:52.038Z,40.10
2017-08-24T12:20:18.981Z,40.60
2017-08-24T12:22:45.217Z,41.60
2017-08-24T12:25:11.500Z,42.10
2017-08-24T12:27:37.891Z,42.30
2017-08-24T12:30:05.115Z,43.40
2017-08-24T12:32:31.288Z,43.40
2017-08-24T12:34:57.500Z,42.90
2017-08-24T12:37:23.681Z,44.40
2017-08-24T12:39:50.710Z,46.40
2017-08-24T12:42:16.895Z,46.00
2017-08-24T12:44:43.068Z,45.00
2017-08-24T12:47:09.464Z,43.90
2017-08-24T12:49:35.660Z,43.20
2017-08-24T12:52:01.949Z,44.00
2017-08-24T12:54:28.204Z,42.80
2017-08-24T12:56:54.469Z,42.40
2017-08-24T12:59:20.677Z,43.80
2017-08-24T13:01:46.956Z,45.00
2017-08-24T13:04:13.224Z,44.40
2017-08-24T13:06:39.452Z,45.40
2017-08-24T13:09:05.995Z,45.80
2017-08-24T13:11:32.364Z,47.40
2017-08-24T13:13:58.591Z,45.70
2017-08-24T13:16:24.931Z,44.20
2017-08-24T13:18:51.093Z,43.50
2017-08-24T13:21:17.410Z,43.60
2017-08-24T13:23:43.695Z,42.10
2017-08-24T13:26:09.896Z,43.60
2017-08-24T13:28:36.224Z,44.50
2017-08-24T13:31:02.598Z,45.00
2017-08-24T13:33:28.928Z,45.40
2017-08-24T13:35:55.152Z,45.70
2017-08-24T13:38:22.252Z,46.70
2017-08-24T13:40:48.517Z,48.10
2017-08-24T13:43:14.713Z,48.20
2017-08-24T13:45:40.984Z,49.80
2017-08-24T13:48:07.329Z,51.80
2017-08-24T13:50:33.512Z,52.80
2017-08-24T13:52:59.744Z,52.90
2017-08-24T13:55:25.878Z,54.10
2017-08-24T13:57:52.087Z,55.30
2017-08-24T14:00:18.346Z,57.00
2017-08-24T14:02:44.537Z,57.80
2017-08-24T14:05:10.782Z,58.40
2017-08-24T14:07:37.118Z,59.00
2017-08-24T14:10:04.700Z,59.60
2017-08-24T14:12:30.888Z,60.50
2017-08-24T14:14:57.223Z,61.40
2017-08-24T14:17:24.878Z,62.00
2017-08-24T14:19:51.149Z,62.10
2017-08-24T14:22:17.444Z,63.00
2017-08-24T14:24:43.744Z,63.20
2017-08-24T14:27:09.897Z,62.80
2017-08-24T14:29:36.150Z,63.50
2017-08-24T14:32:02.328Z,63.50
2017-08-24T14:34:28.467Z,64.40
2017-08-24T14:36:54.742Z,64.40
2017-08-24T14:39:21.191Z,62.30
2017-08-24T14:41:47.421Z,61.00
2017-08-24T14:44:13.751Z,60.90
2017-08-24T14:46:39.931Z,64.40
2017-08-24T14:49:06.150Z,65.60
2017-08-24T14:51:32.337Z,64.70
2017-08-24T14:53:58.708Z,64.60
2017-08-24T14:56:24.955Z,65.80
2017-08-24T14:58:51.273Z,65.60
2017-08-24T15:01:17.525Z,65.80
2017-08-24T15:03:43.825Z,65.60
2017-08-24T15:06:10.102Z,66.20
2017-08-24T15:08:36.265Z,66.70
2017-08-24T15:11:02.624Z,65.70
2017-08-24T15:13:28.897Z,64.60
2017-08-24T15:15:55.239Z,64.20
2017-08-24T15:18:21.438Z,64.40
2017-08-24T15:20:47.677Z,64.80
2017-08-24T15:23:14.630Z,64.20
2017-08-24T15:25:40.848Z,64.70
2017-08-24T15:28:07.040Z,63.00
2017-08-24T15:30:33.299Z,64.50
2017-08-24T15:32:59.588Z,66.90
2017-08-24T15:35:25.945Z,65.70
2017-08-24T15:37:52.247Z,66.50
2017-08-24T15:40:18.416Z,66.60
2017-08-24T15:42:44.689Z,67.50
2017-08-24T15:45:10.816Z,66.40
2017-08-24T15:47:36.989Z,67.80
2017-08-24T15:50:03.286Z,67.10
2017-08-24T15:52:29.604Z,67.60
2017-08-24T15:54:55.764Z,68.10
2017-08-24T15:57:22.412Z,67.60
2017-08-24T15:59:48.627Z,67.90
2017-08-24T16:02:15.155Z,68.90
2017-08-24T16:04:41.442Z,69.80
2017-08-24T16:07:08.810Z,69.00
2017-08-24T16:09:35.047Z,68.30
2017-08-24T16:12:01.308Z,68.90
2017-08-24T16:14:28.330Z,69.90
2017-08-24T16:16:54.561Z,70.20
2017-08-24T16:19:20.758Z,69.90
2017-08-24T16:21:47.243Z,70.80
2017-08-24T16:24:13.388Z,69.70
2017-08-24T16:26:40.020Z,69.70
2017-08-24T16:29:06.296Z,70.10
2017-08-24T16:31:32.431Z,70.50
2017-08-24T16:33:58.606Z,70.70
2017-08-24T16:36:24.811Z,70.60
2017-08-24T16:38:51.134Z,71.00
2017-08-24T16:41:17.435Z,71.30
2017-08-24T16:43:43.676Z,71.40
2017-08-24T16:46:09.839Z,72.30
2017-08-24T16:48:36.326Z,72.90
2017-08-24T16:51:02.564Z,74.00
2017-08-24T16:53:28.894Z,73.30
2017-08-24T16:55:55.088Z,75.00
2017-08-24T16:58:21.348Z,75.30
2017-08-24T17:00:47.508Z,75.10
2017-08-24T17:03:13.864Z,75.30
2017-08-24T17:05:40.085Z,75.40
2017-08-24T17:08:06.294Z,75.10
2017-08-24T17:10:32.649Z,75.40
2017-08-24T17:12:58.929Z,76.00
2017-08-24T17:15:25.123Z,75.70
2017-08-24T17:17:51.299Z,76.40
2017-08-24T17:20:17.631Z,76.50
2017-08-24T17:22:43.857Z,76.80
2017-08-24T17:25:10.124Z,76.90
2017-08-24T17:27:36.395Z,77.60
2017-08-24T17:30:02.701Z,77.70
2017-08-24T17:32:29.786Z,77.30
2017-08-24T17:34:56.281Z,77.80
2017-08-24T17:37:22.699Z,78.50
2017-08-24T17:39:49.139Z,78.20
2017-08-24T17:42:15.351Z,78.70
2017-08-24T17:44:41.680Z,78.80
2017-08-24T17:47:09.626Z,78.90
2017-08-24T17:49:36.001Z,79.00
2017-08-24T17:52:02.279Z,79.60
2017-08-24T17:54:28.423Z,79.10
2017-08-24T17:56:54.674Z,79.80
2017-08-24T17:59:21.897Z,80.10
2017-08-24T18:01:48.168Z,80.40
2017-08-24T18:04:14.337Z,81.00
2017-08-24T18:06:40.814Z,81.00
2017-08-24T18:09:07.264Z,81.10
2017-08-24T18:11:33.510Z,81.80
2017-08-24T18:13:59.749Z,81.90
2017-08-24T18:16:26.295Z,81.90
2017-08-24T18:18:52.589Z,83.90
2017-08-24T18:21:18.774Z,84.20
2017-08-24T18:23:45.056Z,85.60
2017-08-24T18:26:11.304Z,86.20
2017-08-24T18:28:37.680Z,86.90
2017-08-24T18:31:03.862Z,87.60
2017-08-24T18:33:30.152Z,87.90
2017-08-24T18:35:56.412Z,88.10
2017-08-24T18:38:22.746Z,88.50
2017-08-24T18:40:49.065Z,89.30
2017-08-24T18:43:15.447Z,89.90
2017-08-24T18:45:41.764Z,89.80
2017-08-24T18:48:07.997Z,90.80
2017-08-24T18:50:34.218Z,91.10
2017-08-24T18:53:00.485Z,91.40
2017-08-24T18:55:26.715Z,90.70
2017-08-24T18:57:53.079Z,89.10
2017-08-24T19:00:19.394Z,88.80
2017-08-24T19:02:46.531Z,89.20
2017-08-24T19:05:12.719Z,90.80
2017-08-24T19:07:39.909Z,88.90
2017-08-24T19:10:06.226Z,89.40
2017-08-24T19:12:32.483Z,90.00
2017-08-24T19:14:59.134Z,90.70
2017-08-24T19:17:25.547Z,91.80
2017-08-24T19:19:51.780Z,91.90
2017-08-24T19:22:17.935Z,92.30
2017-08-24T19:24:44.844Z,93.00
2017-08-24T19:27:11.033Z,93.40
2017-08-24T19:29:37.478Z,94.10
2017-08-24T19:32:04.108Z,93.30
2017-08-24T19:34:30.851Z,94.00
2017-08-24T19:36:57.553Z,93.50
2017-08-24T19:39:23.798Z,92.10
2017-08-24T19:41:50.036Z,92.20
2017-08-24T19:44:16.320Z,91.00
2017-08-24T19:46:42.593Z,90.30
2017-08-24T19:49:08.983Z,90.20
2017-08-24T19:51:35.199Z,88.00
2017-08-24T19:54:01.415Z,90.30
2017-08-24T19:56:27.741Z,88.30
2017-08-24T19:58:53.947Z,89.30
2017-08-24T20:01:20.291Z,88.70
2017-08-24T20:03:46.706Z,89.10
2017-08-24T20:06:13.503Z,89.00
2017-08-24T20:08:40.340Z,89.60
2017-08-24T20:11:06.646Z,89.30
2017-08-24T20:13:32.951Z,89.60
2017-08-24T20:15:59.134Z,89.90
2017-08-24T20:18:25.411Z,89.30
2017-08-24T20:20:51.682Z,89.00
2017-08-24T20:23:18.027Z,89.90
2017-08-24T20:25:44.307Z,90.30
2017-08-24T20:28:10.486Z,91.30
2017-08-24T20:30:36.866Z,91.90
2017-08-24T20:33:03.037Z,92.40
2017-08-24T20:35:29.286Z,92.90
2017-08-24T20:37:56.444Z,93.10
2017-08-24T20:40:22.652Z,93.50
2017-08-24T20:42:48.917Z,94.40
2017-08-24T20:45:15.166Z,94.60
2017-08-24T20:47:41.662Z,94.90
2017-08-24T20:50:07.892Z,94.80
2017-08-24T20:52:34.222Z,93.20
2017-08-24T20:55:00.505Z,91.90
2017-08-24T20:57:26.753Z,93.70
2017-08-24T20:59:53.714Z,93.40
2017-08-24T21:02:20.253Z,92.80
2017-08-24T21:04:46.479Z,93.60
2017-08-24T21:07:12.775Z,93.90
2017-08-24T21:09:40.040Z,95.30
2017-08-24T21:12:07.508Z,96.30
2017-08-24T21:14:33.799Z,97.70
2017-08-24T21:17:00.486Z,98.10
2017-08-24T21:19:26.754Z,98.10
2017-08-24T21:21:52.902Z,99.30
2017-08-24T21:24:19.082Z,99.00
2017-08-24T21:26:45.335Z,98.00
2017-08-24T21:29:11.536Z,98.00
2017-08-24T21:31:37.970Z,97.80
2017-08-24T21:34:05.138Z,98.40
2017-08-24T21:36:31.367Z,99.00
2017-08-24T21:38:57.604Z,98.80
2017-08-24T21:41:24.103Z,98.20
2017-08-24T21:43:50.433Z,98.50
2017-08-24T21:46:16.663Z,99.10
2017-08-24T21:48:42.949Z,99.90
2017-08-24T21:51:09.207Z,99.90
2017-08-24T21:53:35.512Z,99.70
2017-08-24T21:56:01.767Z,99.30
2017-08-24T21:58:28.394Z,99.80
2017-08-24T22:00:54.800Z,99.50
2017-08-24T22:03:20.993Z,99.00
2017-08-24T22:05:47.126Z,99.90
2017-08-24T22:08:13.454Z,99.90
2017-08-24T22:10:39.733Z,99.90
2017-08-24T22:13:05.965Z,99.90
2017-08-24T22:15:32.085Z,99.90
2017-08-24T22:17:58.291Z,99.90
2017-08-24T22:20:24.456Z,99.90
2017-08-24T22:22:50.702Z,99.90
2017-08-24T22:25:16.819Z,99.90
2017-08-24T22:27:43.147Z,99.90
2017-08-24T22:30:09.434Z,99.90
2017-08-24T22:32:35.623Z,99.90
2017-08-24T22:35:01.777Z,99.90
2017-08-24T22:37:28.158Z,99.90
2017-08-24T22:39:54.377Z,99.90
2017-08-24T22:42:20.541Z,99.90
2017-08-24T22:44:46.663Z,99.90
2017-08-24T22:47:12.803Z,99.90
2017-08-24T22:49:39.542Z,99.90
2017-08-24T22:52:05.724Z,99.90
2017-08-24T22:57:44.977Z,99.90
2017-08-24T23:00:17.472Z,99.90
2017-08-24T23:02:49.825Z,99.90
2017-08-24T23:05:16.076Z,99.90
2017-08-24T23:07:42.275Z,99.90
2017-08-24T23:10:08.380Z,99.90
2017-08-24T23:12:34.622Z,99.90
2017-08-24T23:15:00.970Z,99.90
2017-08-24T23:17:27.242Z,99.90
2017-08-24T23:19:53.652Z,99.90
2017-08-24T23:22:19.835Z,99.90
2017-08-24T23:24:46.263Z,99.90
2017-08-24T23:27:12.510Z,99.90
2017-08-24T23:29:38.727Z,99.90
2017-08-24T23:32:05.017Z,99.90
2017-08-24T23:34:31.233Z,99.90
2017-08-24T23:36:57.446Z,99.90
2017-08-24T23:39:23.647Z,99.90
2017-08-24T23:41:49.847Z,99.90
2017-08-24T23:44:17.004Z,99.90
2017-08-24T23:46:43.566Z,99.90
2017-08-24T23:49:09.886Z,99.90
2017-08-24T23:51:36.083Z,99.90
2017-08-24T23:54:04.129Z,99.90
2017-08-24T23:56:30.571Z,99.90
2017-08-24T23:58:57.377Z,99.90
